Time;durP1;ratioP1;P1;durP2;ratioP2;P2;SDS_P1;SDS_P2;PMS_P1;PMS_P2;Temp;Humidity;BMP_temperature;BMP_pressure;BME280_temperature;BME280_humidity;BME280_pressure;Samples;Min_cycle;Max_cycle;Signal;HPM_P1;HPM_P2
2023/08/08 00:00:03;;;;;;;2.55;1.95;;;;;;;11.79;100.00;100494.16;5013751;28;20099;-86
2023/08/08 00:02:29;;;;;;;2.17;1.65;;;;;;;11.81;100.00;100497.59;5046731;28;20201;-86
2023/08/08 00:04:56;;;;;;;2.97;1.63;;;;;;;11.80;100.00;100478.38;5029940;28;20128;-87
2023/08/08 00:07:23;;;;;;;1.80;1.60;;;;;;;11.71;100.00;100479.41;5026174;28;20508;-88
2023/08/08 00:09:54;;;;;;;3.85;1.73;;;;;;;11.84;100.00;100477.44;5019519;28;20045;-88
2023/08/08 00:12:21;;;;;;;2.10;1.80;;;;;;;11.93;100.00;100481.66;5030761;28;20056;-87
2023/08/08 00:14:54;;;;;;;4.05;1.40;;;;;;;11.84;100.00;100485.31;5039870;28;20506;-85
2023/08/08 00:17:20;;;;;;;3.13;1.60;;;;;;;11.88;100.00;100484.34;4999848;28;20045;-87
2023/08/08 00:19:47;;;;;;;2.85;1.25;;;;;;;12.01;100.00;100482.44;5028746;28;20045;-87
2023/08/08 00:22:13;;;;;;;3.80;1.40;;;;;;;12.01;100.00;100485.03;5014322;28;20049;-87
2023/08/08 00:24:40;;;;;;;1.40;1.13;;;;;;;12.05;100.00;100491.13;5044709;28;20052;-87
2023/08/08 00:27:07;;;;;;;6.20;1.83;;;;;;;12.16;100.00;100480.41;5013698;28;20101;-91
2023/08/08 00:29:36;;;;;;;3.25;1.33;;;;;;;12.27;100.00;100474.97;5012055;28;20132;-87
2023/08/08 00:32:03;;;;;;;1.80;1.67;;;;;;;12.19;100.00;100480.34;5032521;28;20845;-88
2023/08/08 00:34:35;;;;;;;4.88;1.30;;;;;;;12.21;100.00;100470.69;5046024;28;20095;-85
2023/08/08 00:37:01;;;;;;;1.92;1.52;;;;;;;12.14;100.00;100467.34;5032485;28;20053;-86
2023/08/08 00:39:28;;;;;;;3.58;1.60;;;;;;;12.11;100.00;100463.88;5041051;28;20045;-87
2023/08/08 00:41:58;;;;;;;3.72;1.65;;;;;;;12.18;100.00;100471.63;5031832;28;20131;-87
2023/08/08 00:44:27;;;;;;;1.48;1.38;;;;;;;12.20;100.00;100458.47;5025654;28;20060;-86
2023/08/08 00:46:55;;;;;;;2.72;1.17;;;;;;;12.15;100.00;100462.94;5022326;28;20060;-87
2023/08/08 00:49:25;;;;;;;3.67;1.75;;;;;;;12.13;100.00;100456.88;5028250;28;20046;-87
2023/08/08 00:51:53;;;;;;;2.05;1.50;;;;;;;12.09;100.00;100453.44;5011166;28;20042;-87
2023/08/08 00:54:21;;;;;;;3.78;1.58;;;;;;;12.04;100.00;100455.28;5031398;28;20128;-88
2023/08/08 00:56:48;;;;;;;2.67;1.80;;;;;;;11.98;100.00;100453.63;5009255;28;20055;-88
2023/08/08 00:59:23;;;;;;;3.83;1.92;;;;;;;11.97;100.00;100456.25;5049331;28;20109;-89
2023/08/08 01:01:50;;;;;;;1.80;1.70;;;;;;;11.88;100.00;100446.78;5040235;28;20042;-89
2023/08/08 01:04:22;;;;;;;4.78;1.60;;;;;;;11.91;100.00;100449.34;5015049;28;20073;-86
2023/08/08 01:07:08;;;;;;;1.80;1.65;;;;;;;11.93;100.00;100452.81;5036068;28;20046;-86
2023/08/08 01:09:46;;;;;;;2.15;1.50;;;;;;;11.92;100.00;100441.44;5028677;28;20053;-86
2023/08/08 01:12:16;;;;;;;2.78;1.90;;;;;;;12.01;100.00;100445.69;5023564;28;20088;-88
2023/08/08 01:14:46;;;;;;;3.25;1.65;;;;;;;12.02;100.00;100449.16;5048177;28;20034;-87
2023/08/08 01:17:16;;;;;;;5.57;1.42;;;;;;;11.96;100.00;100451.94;5013032;28;20037;-87
2023/08/08 01:19:44;;;;;;;3.10;1.35;;;;;;;11.89;100.00;100443.28;5033457;28;20049;-87
2023/08/08 01:22:51;;;;;;;4.63;1.80;;;;;;;11.89;100.00;100432.78;5044469;28;20049;-86
2023/08/08 01:25:18;;;;;;;1.88;1.17;;;;;;;12.01;100.00;100434.34;4983421;28;20048;-86
2023/08/08 01:27:46;;;;;;;1.65;1.55;;;;;;;12.10;100.00;100435.91;5011909;28;20073;-88
2023/08/08 01:30:16;;;;;;;2.15;1.58;;;;;;;12.00;100.00;100430.84;5012698;28;20052;-87
2023/08/08 01:32:43;;;;;;;2.95;1.50;;;;;;;12.07;100.00;100435.09;5013786;28;20045;-88
2023/08/08 01:35:13;;;;;;;3.55;1.40;;;;;;;12.07;100.00;100427.22;5028308;28;20045;-87
2023/08/08 01:37:50;;;;;;;1.88;1.27;;;;;;;12.01;100.00;100421.22;5025789;28;20048;-88
2023/08/08 01:40:20;;;;;;;1.33;1.20;;;;;;;11.92;100.00;100416.97;5030679;28;20099;-87
2023/08/08 01:42:49;;;;;;;2.47;1.73;;;;;;;11.90;100.00;100419.63;5028247;28;20117;-89
2023/08/08 01:45:19;;;;;;;2.78;1.55;;;;;;;11.83;100.00;100412.75;5015703;28;20042;-88
2023/08/08 01:47:53;;;;;;;4.00;1.77;;;;;;;11.78;100.00;100422.47;5014800;28;20062;-90
2023/08/08 01:50:21;;;;;;;;;;;;;;;11.78;100.00;100408.50;5024735;28;20045;-86
2023/08/08 01:52:51;;;;;;;6.10;2.38;;;;;;;11.76;100.00;100413.78;5023884;28;19964;-85
2023/08/08 01:55:18;;;;;;;6.15;1.30;;;;;;;11.75;100.00;100404.19;5026201;28;20053;-86
2023/08/08 01:57:50;;;;;;;1.65;1.40;;;;;;;11.83;100.00;100411.91;5008187;28;20049;-87
2023/08/08 02:00:17;;;;;;;4.22;1.58;;;;;;;11.83;100.00;100401.41;5028273;28;20042;-86
2023/08/08 02:02:44;;;;;;;5.53;1.30;;;;;;;11.90;100.00;100409.16;5026787;28;20046;-86
2023/08/08 02:05:10;;;;;;;7.07;1.60;;;;;;;12.00;100.00;100406.38;5036175;28;20144;-89
2023/08/08 02:07:37;;;;;;;3.28;1.48;;;;;;;12.00;100.00;100403.75;5031615;28;20048;-86
2023/08/08 02:10:06;;;;;;;4.07;1.40;;;;;;;12.01;100.00;100406.34;5043340;28;20101;-87
2023/08/08 02:12:33;;;;;;;1.77;1.60;;;;;;;12.05;100.00;100402.75;5042263;28;20092;-87
2023/08/08 02:15:00;;;;;;;2.38;1.30;;;;;;;11.94;100.00;100383.69;5004435;28;20053;-86
2023/08/08 02:17:27;;;;;;;2.58;1.77;;;;;;;11.91;100.00;100396.88;5011591;28;20709;-92
2023/08/08 02:19:56;;;;;;;3.90;1.50;;;;;;;11.89;100.00;100396.06;5014705;28;20091;-88
2023/08/08 02:22:23;;;;;;;2.40;1.70;;;;;;;11.90;100.00;100387.28;5027934;28;20100;-88
2023/08/08 02:24:50;;;;;;;1.55;1.45;;;;;;;11.83;100.00;100385.69;5007770;28;20056;-88
2023/08/08 02:27:17;;;;;;;1.80;1.58;;;;;;;11.84;100.00;100383.03;5023217;28;20064;-89
2023/08/08 02:29:45;;;;;;;2.05;1.85;;;;;;;11.85;100.00;100376.88;5009841;28;20417;-88
2023/08/08 02:32:13;;;;;;;4.15;1.80;;;;;;;11.90;100.00;100382.91;5033449;28;20038;-88
2023/08/08 02:34:39;;;;;;;4.72;2.20;;;;;;;11.97;100.00;100381.06;5028587;28;20045;-87
2023/08/08 02:37:06;;;;;;;4.80;2.05;;;;;;;12.08;100.00;100383.47;5025512;28;20501;-89
2023/08/08 02:39:34;;;;;;;5.07;1.95;;;;;;;12.16;100.00;100380.69;5037549;28;20053;-87
2023/08/08 02:42:04;;;;;;;3.40;1.80;;;;;;;12.21;100.00;100390.19;5009361;28;20042;-86
2023/08/08 02:44:34;;;;;;;4.60;2.17;;;;;;;12.29;100.00;100389.19;5029514;28;20142;-88
2023/08/08 02:47:00;;;;;;;5.95;2.25;;;;;;;12.32;100.00;100390.00;5037001;28;20049;-88
2023/08/08 02:49:30;;;;;;;4.13;1.73;;;;;;;12.37;100.00;100387.28;5009093;28;20050;-88
2023/08/08 02:51:58;;;;;;;4.07;2.50;;;;;;;12.41;100.00;100378.44;5025926;28;20109;-90
2023/08/08 02:54:26;;;;;;;5.55;2.22;;;;;;;12.40;100.00;100381.97;5024908;28;20100;-89
2023/08/08 02:56:56;;;;;;;1.88;1.70;;;;;;;12.46;100.00;100387.06;5023826;28;20401;-87
2023/08/08 02:59:27;;;;;;;2.25;2.05;;;;;;;12.48;100.00;100371.31;5012019;28;20044;-88
2023/08/08 03:01:59;;;;;;;3.60;2.58;;;;;;;12.49;100.00;100376.53;5016125;28;20045;-91
2023/08/08 03:04:26;;;;;;;3.33;2.10;;;;;;;12.57;100.00;100369.34;5020259;28;20045;-90
2023/08/08 03:06:53;;;;;;;3.03;2.08;;;;;;;12.57;100.00;100366.72;5029862;28;20104;-89
2023/08/08 03:09:22;;;;;;;5.13;1.67;;;;;;;12.66;100.00;100367.41;5047017;28;20547;-87
2023/08/08 03:11:53;;;;;;;3.40;2.28;;;;;;;12.63;100.00;100365.69;5036082;28;20049;-86
2023/08/08 03:14:22;;;;;;;5.18;2.20;;;;;;;12.61;100.00;100362.25;5051155;28;20095;-87
2023/08/08 03:16:49;;;;;;;4.18;2.65;;;;;;;12.67;100.00;100374.38;5045278;28;20060;-85
2023/08/08 03:19:18;;;;;;;3.00;2.05;;;;;;;12.69;100.00;100373.44;5013437;28;20048;-86
2023/08/08 03:21:48;;;;;;;4.85;2.33;;;;;;;12.75;100.00;100369.84;5033776;28;20046;-85
2023/08/08 03:24:15;;;;;;;2.13;1.95;;;;;;;12.77;100.00;100365.41;5041540;28;20041;-86
2023/08/08 03:26:44;;;;;;;3.95;2.70;;;;;;;12.77;100.00;100367.19;5034616;28;20061;-85
2023/08/08 03:29:18;;;;;;;4.18;2.30;;;;;;;12.78;100.00;100361.03;5031713;28;20041;-90
2023/08/08 03:31:45;;;;;;;8.85;2.25;;;;;;;12.76;100.00;100361.03;5030337;28;20044;-88
2023/08/08 03:34:14;;;;;;;2.35;1.98;;;;;;;12.72;100.00;100364.63;5010881;28;20050;-87
2023/08/08 03:36:45;;;;;;;4.22;2.35;;;;;;;12.70;100.00;100358.56;5033029;28;20504;-87
2023/08/08 03:39:18;;;;;;;2.83;2.42;;;;;;;12.66;100.00;100360.41;5033796;28;20420;-86
2023/08/08 03:41:52;;;;;;;4.50;2.25;;;;;;;12.70;100.00;100359.44;5035564;28;20064;-86
2023/08/08 03:44:19;;;;;;;4.00;2.35;;;;;;;12.61;100.00;100359.63;5042419;28;20026;-87
2023/08/08 03:46:52;;;;;;;3.08;2.17;;;;;;;12.57;100.00;100345.72;5025197;28;20041;-88
2023/08/08 03:49:19;;;;;;;4.28;2.30;;;;;;;12.60;100.00;100357.91;5011598;28;20080;-89
2023/08/08 03:51:48;;;;;;;2.90;2.65;;;;;;;12.56;100.00;100351.00;5009473;28;20493;-87
2023/08/08 03:54:19;;;;;;;4.40;1.90;;;;;;;12.58;100.00;100360.56;5041774;28;20125;-88
2023/08/08 03:56:46;;;;;;;2.67;1.95;;;;;;;12.57;100.00;100352.72;5038688;28;20050;-88
2023/08/08 03:59:13;;;;;;;2.40;2.30;;;;;;;12.58;100.00;100347.44;5025278;28;20042;-89
2023/08/08 04:01:43;;;;;;;3.60;2.05;;;;;;;12.67;100.00;100337.63;5043247;28;20129;-90
2023/08/08 04:04:10;;;;;;;4.97;2.55;;;;;;;12.67;100.00;100342.88;5031610;28;20037;-87
2023/08/08 04:06:37;;;;;;;3.70;2.17;;;;;;;12.75;100.00;100330.44;5031360;28;20444;-89
2023/08/08 04:09:06;;;;;;;2.58;2.38;;;;;;;12.86;100.00;100341.53;5028336;28;20148;-88
2023/08/08 04:11:38;;;;;;;6.25;2.75;;;;;;;12.95;100.00;100337.00;5012141;28;20548;-86
2023/08/08 04:14:05;;;;;;;3.22;2.20;;;;;;;12.94;100.00;100337.88;5026881;28;20051;-86
2023/08/08 04:16:32;;;;;;;4.05;2.20;;;;;;;12.92;100.00;100340.56;5026200;28;20069;-89
2023/08/08 04:19:03;;;;;;;4.38;1.98;;;;;;;12.87;100.00;100339.81;5029958;28;20045;-91
2023/08/08 04:21:32;;;;;;;4.53;2.50;;;;;;;12.91;100.00;100344.06;5042842;28;20037;-89
2023/08/08 04:24:05;;;;;;;4.93;1.60;;;;;;;12.99;100.00;100346.53;5028404;28;20930;-86
2023/08/08 04:26:33;;;;;;;2.25;1.50;;;;;;;12.94;100.00;100337.88;5021199;28;20042;-88
2023/08/08 04:29:06;;;;;;;2.28;1.55;;;;;;;12.88;100.00;100338.88;5025037;28;20057;-88
2023/08/08 04:31:35;;;;;;;5.32;2.15;;;;;;;12.84;100.00;100340.75;5014921;28;20049;-90
2023/08/08 04:34:03;;;;;;;4.75;2.28;;;;;;;12.88;100.00;100345.00;5025707;23;20046;-90
2023/08/08 04:36:33;;;;;;;2.90;1.42;;;;;;;12.83;100.00;100339.00;5023538;28;20137;-88
2023/08/08 04:39:02;;;;;;;5.13;2.00;;;;;;;12.86;100.00;100338.06;4997000;28;20144;-88
2023/08/08 04:41:29;;;;;;;1.75;1.65;;;;;;;12.88;100.00;100341.50;5026438;28;20067;-87
2023/08/08 04:43:57;;;;;;;3.72;2.33;;;;;;;12.93;100.00;100328.28;5030374;28;20045;-88
2023/08/08 04:46:35;;;;;;;4.05;1.85;;;;;;;12.94;100.00;100330.00;5039158;28;20054;-87
2023/08/08 04:49:02;;;;;;;1.85;1.67;;;;;;;12.93;100.00;100337.00;5014843;28;20152;-87
2023/08/08 04:51:29;;;;;;;5.68;2.10;;;;;;;12.93;100.00;100337.00;5003072;28;20053;-88
2023/08/08 04:53:57;;;;;;;5.22;2.25;;;;;;;12.95;100.00;100324.72;5014997;28;20059;-88
2023/08/08 04:56:23;;;;;;;4.78;2.53;;;;;;;12.94;100.00;100333.47;5013561;28;20049;-88
2023/08/08 04:58:53;;;;;;;4.75;1.98;;;;;;;12.95;100.00;100327.34;5026671;28;20080;-88
2023/08/08 05:01:20;;;;;;;4.07;2.20;;;;;;;13.00;100.00;100320.22;5016233;28;20046;-89
2023/08/08 05:03:56;;;;;;;5.47;1.85;;;;;;;13.07;100.00;100324.44;5013475;28;20058;-87
2023/08/08 05:06:26;;;;;;;3.97;2.20;;;;;;;13.08;100.00;100317.41;5026073;28;20050;-89
2023/08/08 05:08:53;;;;;;;6.43;1.98;;;;;;;13.12;100.00;100312.94;5041479;28;20053;-89
2023/08/08 05:11:20;;;;;;;2.63;1.90;;;;;;;13.13;100.00;100317.25;5035896;28;20045;-88
2023/08/08 05:13:47;;;;;;;6.65;2.28;;;;;;;13.13;100.00;100306.75;5033483;28;20108;-89
2023/08/08 05:16:14;;;;;;;4.60;3.15;;;;;;;13.11;100.00;100301.53;5032826;28;20049;-92
2023/08/08 05:18:44;;;;;;;4.03;1.90;;;;;;;13.16;100.00;100304.06;5027880;28;20038;-86
2023/08/08 05:21:13;;;;;;;2.40;2.13;;;;;;;13.14;100.00;100301.47;5029087;28;20057;-88
2023/08/08 05:23:42;;;;;;;7.50;2.53;;;;;;;13.15;100.00;100297.94;5027160;28;20044;-89
2023/08/08 05:26:15;;;;;;;6.88;2.72;;;;;;;13.21;100.00;100295.16;5029503;28;20474;-88
2023/08/08 05:28:47;;;;;;;6.70;2.53;;;;;;;13.24;100.00;100295.09;5020235;28;20107;-85
2023/08/08 05:31:21;;;;;;;23.30;2.92;;;;;;;13.25;100.00;100303.81;5030856;28;20053;-89
2023/08/08 05:33:53;;;;;;;2.95;1.92;;;;;;;13.33;100.00;100301.00;5035145;28;20050;-86
2023/08/08 05:36:20;;;;;;;4.47;2.63;;;;;;;13.42;100.00;100294.69;5001813;28;20073;-88
2023/08/08 05:38:46;;;;;;;4.20;2.40;;;;;;;13.46;100.00;100293.69;5012592;28;20068;-90
2023/08/08 05:41:15;;;;;;;2.08;1.98;;;;;;;13.53;100.00;100288.22;5011669;28;20038;-87
2023/08/08 05:43:43;;;;;;;3.22;2.15;;;;;;;13.59;100.00;100300.34;5009474;28;20042;-88
2023/08/08 05:46:19;;;;;;;3.83;1.83;;;;;;;13.60;100.00;100304.69;5006943;28;20058;-91
2023/08/08 05:48:51;;;;;;;2.42;2.17;;;;;;;13.71;100.00;100297.38;5026738;28;20501;-89
2023/08/08 05:51:19;;;;;;;5.65;2.03;;;;;;;13.75;100.00;100306.03;5008919;28;20438;-88
2023/08/08 05:53:46;;;;;;;2.90;2.03;;;;;;;13.77;100.00;100317.38;5003372;28;20045;-87
2023/08/08 05:56:16;;;;;;;9.80;2.65;;;;;;;13.82;100.00;100315.50;5009363;28;20050;-86
2023/08/08 05:58:44;;;;;;;2.53;2.33;;;;;;;13.86;100.00;100314.50;5012309;28;20125;-86
2023/08/08 06:01:13;;;;;;;3.97;2.67;;;;;;;13.93;100.00;100314.34;5030422;28;20041;-89
2023/08/08 06:03:43;;;;;;;6.90;3.40;;;;;;;13.97;100.00;100316.81;4993503;28;20117;-89
2023/08/08 06:06:11;;;;;;;7.32;2.95;;;;;;;13.96;100.00;100316.88;5010331;28;20081;-87
2023/08/08 06:08:45;;;;;;;3.72;2.67;;;;;;;13.96;100.00;100327.41;4990008;28;20481;-89
2023/08/08 06:11:12;;;;;;;6.43;2.65;;;;;;;14.00;100.00;100326.41;4988604;28;20100;-88
2023/08/08 06:13:39;;;;;;;4.53;2.47;;;;;;;14.00;100.00;100329.03;5006763;28;20050;-88
2023/08/08 06:16:09;;;;;;;5.45;2.25;;;;;;;13.92;100.00;100341.53;5033446;28;20066;-89
2023/08/08 06:18:38;;;;;;;4.30;2.75;;;;;;;13.87;100.00;100320.63;4993385;28;20046;-87
2023/08/08 06:21:08;;;;;;;7.45;2.90;;;;;;;13.81;100.00;100318.19;4976276;28;20054;-89
2023/08/08 06:23:34;;;;;;;5.32;2.83;;;;;;;13.76;100.00;100315.66;5008062;28;20084;-89
2023/08/08 06:26:04;;;;;;;5.20;2.38;;;;;;;13.70;100.00;100321.97;5008130;28;20264;-89
2023/08/08 06:28:31;;;;;;;3.05;2.60;;;;;;;13.77;100.00;100327.91;5012870;28;20125;-88
2023/08/08 06:31:00;;;;;;;6.40;2.85;;;;;;;13.86;100.00;100319.75;5007963;28;20118;-90
2023/08/08 06:33:28;;;;;;;7.38;4.03;;;;;;;13.89;100.00;100321.44;5008393;28;20038;-87
2023/08/08 06:35:59;;;;;;;5.70;2.65;;;;;;;13.88;100.00;100319.72;5024088;28;20068;-89
2023/08/08 06:38:26;;;;;;;6.75;3.20;;;;;;;13.93;100.00;100320.44;4997930;28;20058;-88
2023/08/08 06:40:53;;;;;;;3.45;2.90;;;;;;;14.13;100.00;100321.66;4998310;28;20049;-88
2023/08/08 06:43:19;;;;;;;3.90;3.00;;;;;;;14.33;100.00;100326.34;5011029;28;20132;-89
2023/08/08 06:45:47;;;;;;;8.00;3.10;;;;;;;14.48;100.00;100314.47;5030024;28;20412;-88
2023/08/08 06:48:13;;;;;;;3.85;2.83;;;;;;;14.54;100.00;100314.28;5011319;28;20137;-87
2023/08/08 06:50:40;;;;;;;4.25;2.85;;;;;;;14.62;99.37;100319.31;5013647;28;20058;-86
2023/08/08 06:53:07;;;;;;;4.88;2.63;;;;;;;14.76;99.18;100322.41;4991067;28;20053;-86
2023/08/08 06:55:34;;;;;;;4.10;2.42;;;;;;;14.92;97.59;100312.25;5009947;28;20042;-86
2023/08/08 06:58:01;;;;;;;5.30;2.75;;;;;;;15.13;95.14;100315.94;5027822;28;20041;-90
2023/08/08 07:00:31;;;;;;;2.67;2.15;;;;;;;15.36;94.60;100317.81;5027117;28;20076;-86
2023/08/08 07:02:58;;;;;;;6.78;2.80;;;;;;;15.46;93.04;100310.44;4997941;28;20136;-90
2023/08/08 07:05:27;;;;;;;3.85;2.20;;;;;;;15.63;91.65;100312.50;5022800;28;20112;-85
2023/08/08 07:07:54;;;;;;;6.03;2.15;;;;;;;15.71;91.08;100306.94;5025447;28;20074;-91
2023/08/08 07:10:21;;;;;;;4.38;1.73;;;;;;;15.78;90.34;100324.25;5037635;28;20030;-91
2023/08/08 07:12:49;;;;;;;4.65;1.55;;;;;;;16.27;87.67;100310.19;5030400;28;20046;-87
2023/08/08 07:15:16;;;;;;;4.72;1.90;;;;;;;16.33;86.61;100315.25;4996636;28;20046;-87
2023/08/08 07:17:43;;;;;;;3.47;1.88;;;;;;;16.46;84.92;100289.22;5024229;28;20074;-86
2023/08/08 07:20:13;;;;;;;2.85;1.63;;;;;;;16.57;83.87;100315.22;5016091;28;20046;-87
2023/08/08 07:22:40;;;;;;;7.05;2.42;;;;;;;16.70;82.11;100301.47;5003870;28;20050;-85
2023/08/08 07:25:11;;;;;;;4.50;1.88;;;;;;;16.76;81.58;100299.50;5012306;28;20049;-87
2023/08/08 07:27:38;;;;;;;6.10;1.75;;;;;;;17.13;79.70;100312.09;5003633;28;20112;-87
2023/08/08 07:30:06;;;;;;;1.67;1.58;;;;;;;17.11;79.68;100316.56;4976860;28;20081;-87
2023/08/08 07:32:37;;;;;;;3.95;1.75;;;;;;;16.78;80.78;100319.66;5007895;28;20060;-88
2023/08/08 07:35:05;;;;;;;1.90;1.40;;;;;;;16.46;82.49;100294.50;5011692;28;20061;-88
2023/08/08 07:37:33;;;;;;;3.97;1.55;;;;;;;16.37;83.43;100312.44;5016714;28;20037;-91
2023/08/08 07:40:03;;;;;;;5.22;2.20;;;;;;;16.48;82.53;100301.44;5005263;28;20053;-88
2023/08/08 07:42:33;;;;;;;6.45;1.88;;;;;;;16.68;80.33;100298.00;5011571;28;20056;-85
2023/08/08 07:45:01;;;;;;;3.95;1.90;;;;;;;17.13;77.28;100298.88;5031837;28;20077;-85
2023/08/08 07:47:29;;;;;;;4.32;1.60;;;;;;;17.22;77.70;100294.09;5014153;28;20049;-89
2023/08/08 07:49:57;;;;;;;2.97;1.35;;;;;;;17.10;75.79;100290.19;5001590;28;20049;-85
2023/08/08 07:52:24;;;;;;;1.60;1.00;;;;;;;17.57;74.94;100297.88;5014266;28;20092;-90
2023/08/08 07:54:53;;;;;;;3.33;1.48;;;;;;;17.56;73.93;100305.88;5026941;28;20072;-86
2023/08/08 07:57:25;;;;;;;2.92;1.55;;;;;;;17.32;75.30;100298.09;5031033;28;20053;-90
2023/08/08 07:59:52;;;;;;;2.75;1.00;;;;;;;16.99;76.56;100291.50;5018059;28;20122;-88
2023/08/08 08:02:21;;;;;;;1.05;1.02;;;;;;;16.96;75.52;100298.69;5001453;28;20053;-87
2023/08/08 08:04:50;;;;;;;6.25;1.67;;;;;;;16.85;75.39;100289.38;5020855;28;20079;-86
2023/08/08 08:07:18;;;;;;;3.42;1.40;;;;;;;16.74;76.98;100282.81;5014780;28;20050;-86
2023/08/08 08:09:56;;;;;;;3.50;1.08;;;;;;;16.97;75.29;100305.72;5019759;28;20046;-85
2023/08/08 08:12:32;;;;;;;2.83;1.45;;;;;;;17.52;73.71;100294.56;4995920;28;20145;-91
2023/08/08 08:15:17;;;;;;;3.00;1.30;;;;;;;18.06;70.78;100280.75;5014786;28;20092;-85
2023/08/08 08:17:45;;;;;;;4.93;1.85;;;;;;;18.44;68.64;100289.53;4999827;28;20085;-85
2023/08/08 08:20:12;;;;;;;6.40;1.67;;;;;;;18.78;66.02;100268.50;5009976;28;20046;-85
2023/08/08 08:22:40;;;;;;;4.07;1.30;;;;;;;18.86;65.69;100279.56;5017605;28;20041;-87
2023/08/08 08:25:10;;;;;;;3.63;1.10;;;;;;;19.17;65.46;100284.22;4993955;28;20085;-87
2023/08/08 08:27:39;;;;;;;3.42;1.50;;;;;;;19.39;64.94;100275.19;4991460;28;20121;-86
2023/08/08 08:30:09;;;;;;;1.83;0.80;;;;;;;19.91;60.98;100270.75;5030917;28;20121;-86
2023/08/08 08:32:39;;;;;;;2.97;1.50;;;;;;;19.91;61.62;100276.91;5009855;28;20107;-88
2023/08/08 08:35:09;;;;;;;5.13;0.90;;;;;;;20.10;58.58;100262.59;5026517;28;20053;-86
2023/08/08 08:37:36;;;;;;;3.33;1.10;;;;;;;19.55;60.77;100256.66;5024610;28;20053;-84
2023/08/08 08:40:06;;;;;;;1.30;1.02;;;;;;;19.25;62.61;100267.06;5014719;28;20449;-85
2023/08/08 08:42:38;;;;;;;3.03;1.42;;;;;;;19.05;64.07;100271.59;5021261;28;20053;-85
2023/08/08 08:45:06;;;;;;;2.70;1.60;;;;;;;18.94;63.61;100258.00;5017490;28;20083;-85
2023/08/08 08:47:41;;;;;;;2.10;1.13;;;;;;;19.44;60.23;100253.72;5013250;28;20474;-86
2023/08/08 08:50:10;;;;;;;2.05;1.38;;;;;;;19.20;62.26;100256.69;5009900;28;20140;-86
2023/08/08 08:52:37;;;;;;;5.30;1.35;;;;;;;18.87;63.42;100243.31;5025744;28;20474;-87
2023/08/08 08:55:07;;;;;;;1.83;0.80;;;;;;;18.25;65.18;100249.84;5024922;28;20049;-88
2023/08/08 08:57:34;;;;;;;5.68;1.05;;;;;;;17.84;66.60;100249.94;5026436;28;20050;-86
2023/08/08 09:00:00;;;;;;;4.78;1.30;;;;;;;17.61;67.86;100249.19;5008591;28;20044;-86
2023/08/08 09:02:27;;;;;;;2.72;1.00;;;;;;;17.43;69.91;100261.44;5003466;28;20054;-87
2023/08/08 09:04:55;;;;;;;3.67;1.17;;;;;;;17.29;71.79;100256.75;5014464;28;20120;-86
2023/08/08 09:07:27;;;;;;;2.28;1.25;;;;;;;17.14;73.94;100262.69;5008835;28;20042;-86
2023/08/08 09:10:07;;;;;;;1.27;1.08;;;;;;;16.95;75.89;100252.91;5009636;28;20052;-87
2023/08/08 09:12:36;;;;;;;3.58;1.30;;;;;;;18.06;72.95;100255.13;5034013;28;20050;-89
2023/08/08 09:15:07;;;;;;;3.90;1.27;;;;;;;19.91;66.15;100239.72;5016794;28;20271;-86
2023/08/08 09:17:44;;;;;;;2.97;1.08;;;;;;;21.40;59.83;100242.72;5019536;28;20084;-85
2023/08/08 09:20:14;;;;;;;1.65;1.05;;;;;;;22.89;55.49;100236.03;5011582;28;20041;-87
2023/08/08 09:22:43;;;;;;;1.88;0.98;;;;;;;21.66;56.04;100221.66;4989229;28;20080;-86
2023/08/08 09:25:10;;;;;;;3.72;1.67;;;;;;;19.76;61.66;100257.28;5007933;28;20500;-86
2023/08/08 09:27:36;;;;;;;6.03;1.60;;;;;;;18.82;66.97;100251.50;5009019;28;20046;-87
2023/08/08 09:30:05;;;;;;;3.35;1.45;;;;;;;18.87;67.90;100252.13;4996053;28;20410;-85
2023/08/08 09:32:32;;;;;;;4.07;1.40;;;;;;;18.55;69.54;100254.59;5003858;28;20084;-90
2023/08/08 09:35:00;;;;;;;5.30;1.45;;;;;;;18.16;71.43;100259.06;5016606;28;20045;-87
2023/08/08 09:37:29;;;;;;;2.15;1.30;;;;;;;17.89;70.05;100239.13;5020105;28;20056;-90
2023/08/08 09:40:00;;;;;;;9.52;1.35;;;;;;;17.57;72.31;100242.28;5024423;28;20072;-87
2023/08/08 09:42:31;;;;;;;3.50;1.30;;;;;;;17.40;74.33;100242.19;5022074;28;20493;-88
2023/08/08 09:44:59;;;;;;;5.18;1.73;;;;;;;17.40;74.69;100236.91;5028182;28;20101;-88
2023/08/08 09:47:30;;;;;;;5.18;1.90;;;;;;;17.36;76.18;100241.47;5006127;28;20042;-87
2023/08/08 09:50:05;;;;;;;4.28;1.67;;;;;;;17.50;75.95;100243.50;5026985;28;20136;-88
2023/08/08 09:52:38;;;;;;;3.72;1.52;;;;;;;19.09;67.86;100235.16;5009605;28;20121;-84
2023/08/08 09:55:07;;;;;;;2.92;1.55;;;;;;;19.45;63.60;100226.22;4990604;28;20494;-85
2023/08/08 09:57:34;;;;;;;1.85;1.27;;;;;;;19.11;64.97;100239.47;5008007;28;20794;-86
2023/08/08 10:00:15;;;;;;;3.75;1.38;;;;;;;18.75;65.63;100226.25;5013465;28;20058;-85
2023/08/08 10:02:49;;;;;;;3.00;1.17;;;;;;;19.11;63.05;100234.16;5010306;28;20058;-88
2023/08/08 10:05:19;;;;;;;7.82;2.08;;;;;;;18.94;63.57;100231.50;5017084;28;20441;-86
2023/08/08 10:07:56;;;;;;;3.60;1.58;;;;;;;18.68;64.68;100223.00;5021550;28;20042;-86
2023/08/08 10:10:26;;;;;;;5.03;1.65;;;;;;;19.00;64.74;100237.34;4996758;28;20086;-86
2023/08/08 10:12:58;;;;;;;3.63;1.35;;;;;;;20.30;60.17;100237.59;4987643;28;20112;-85
2023/08/08 10:15:31;;;;;;;3.25;1.25;;;;;;;20.67;57.39;100244.31;4975260;28;20053;-84
2023/08/08 10:18:07;;;;;;;1.73;1.27;;;;;;;21.10;53.48;100229.47;5007527;28;20127;-90
2023/08/08 10:20:37;;;;;;;1.15;0.65;;;;;;;22.38;49.48;100242.88;5010986;28;20062;-88
2023/08/08 10:23:18;;;;;;;1.98;0.90;;;;;;;23.39;47.57;100220.22;4997987;28;20037;-86
2023/08/08 10:25:56;;;;;;;2.80;1.23;;;;;;;23.66;48.34;100243.25;5005860;28;20061;-86
2023/08/08 10:28:40;;;;;;;3.17;1.38;;;;;;;22.63;49.74;100228.81;5013586;28;20042;-86
2023/08/08 10:31:35;;;;;;;3.20;1.08;;;;;;;22.12;52.24;100229.41;5024867;28;20042;-85
2023/08/08 10:36:55;;;;;;;2.60;0.90;;;;;;;23.76;46.98;100231.81;5006094;28;20197;-85
2023/08/08 10:39:22;;;;;;;2.53;1.10;;;;;;;23.04;48.38;100234.97;5002956;28;20099;-84
2023/08/08 10:41:54;;;;;;;4.15;1.38;;;;;;;22.27;50.30;100242.72;4994560;28;20453;-85
2023/08/08 10:44:34;;;;;;;1.67;0.68;;;;;;;22.50;49.79;100243.88;5029086;28;20486;-84
2023/08/08 10:47:03;;;;;;;0.77;0.65;;;;;;;21.55;51.88;100248.09;5009268;28;20049;-84
2023/08/08 10:49:31;;;;;;;3.20;1.30;;;;;;;20.75;54.50;100248.38;5002595;28;20039;-86
2023/08/08 10:52:04;;;;;;;4.90;1.02;;;;;;;21.95;52.20;100246.50;5010899;28;20046;-86
2023/08/08 10:54:39;;;;;;;2.92;0.90;;;;;;;23.62;48.22;100242.63;4986118;28;20034;-86
2023/08/08 10:57:22;;;;;;;3.83;1.60;;;;;;;25.13;42.42;100241.47;5011231;28;20049;-90
2023/08/08 10:59:58;;;;;;;4.50;1.05;;;;;;;25.15;42.08;100236.84;4995821;28;20046;-84
2023/08/08 11:02:28;;;;;;;3.28;1.00;;;;;;;25.35;41.35;100232.66;5026803;28;20041;-87
2023/08/08 11:05:00;;;;;;;1.42;0.90;;;;;;;25.49;41.54;100236.94;5006512;28;20049;-87
2023/08/08 11:07:29;;;;;;;2.90;1.08;;;;;;;23.66;44.03;100238.75;5008326;28;20126;-85
2023/08/08 11:09:57;;;;;;;2.90;1.23;;;;;;;21.98;49.42;100242.78;5026577;28;20042;-84
2023/08/08 11:12:26;;;;;;;3.47;1.60;;;;;;;21.41;50.65;100235.63;5013172;28;20038;-84
2023/08/08 11:14:55;;;;;;;4.43;1.35;;;;;;;20.63;52.84;100242.78;5017678;28;20041;-92
2023/08/08 11:17:25;;;;;;;2.08;0.88;;;;;;;21.70;49.24;100235.66;5022299;28;20069;-84
2023/08/08 11:19:55;;;;;;;1.90;0.80;;;;;;;22.54;47.47;100228.53;5005771;28;20104;-84
2023/08/08 11:22:34;;;;;;;0.90;0.70;;;;;;;24.55;40.81;100222.63;5003630;28;20140;-88
2023/08/08 11:25:03;;;;;;;2.75;0.93;;;;;;;24.01;40.68;100224.72;5010553;28;20045;-85
2023/08/08 11:27:35;;;;;;;2.17;0.50;;;;;;;22.33;45.15;100228.13;4992186;28;20046;-85
2023/08/08 11:30:02;;;;;;;3.85;0.63;;;;;;;21.42;47.98;100216.00;5011580;28;20113;-85
2023/08/08 11:32:29;;;;;;;3.72;1.00;;;;;;;20.70;50.65;100205.22;5015151;28;20038;-87
2023/08/08 11:34:56;;;;;;;4.22;1.23;;;;;;;21.29;50.03;100219.44;5030986;28;20080;-85